sensor_id;sensor_type;location;lat;lon;timestamp;temperature;humidity
32147;DHT22;32190;49.112;8.598;2023-06-10T00:00:26;25.30;40.50
32147;DHT22;32190;49.112;8.598;2023-06-10T00:06:17;25.20;40.50
32147;DHT22;32190;49.112;8.598;2023-06-10T00:12:08;25.10;40.60
32147;DHT22;32190;49.112;8.598;2023-06-10T00:18:03;25.00;40.80
32147;DHT22;32190;49.112;8.598;2023-06-10T00:23:54;25.00;40.80
32147;DHT22;32190;49.112;8.598;2023-06-10T00:29:45;24.90;40.90
32147;DHT22;32190;49.112;8.598;2023-06-10T00:35:36;24.70;41.10
32147;DHT22;32190;49.112;8.598;2023-06-10T00:41:26;24.50;41.40
32147;DHT22;32190;49.112;8.598;2023-06-10T00:47:17;24.40;41.50
32147;DHT22;32190;49.112;8.598;2023-06-10T00:53:08;24.40;41.60
32147;DHT22;32190;49.112;8.598;2023-06-10T00:59:00;24.50;41.50
32147;DHT22;32190;49.112;8.598;2023-06-10T01:04:50;24.50;41.40
32147;DHT22;32190;49.112;8.598;2023-06-10T01:10:53;24.50;41.50
32147;DHT22;32190;49.112;8.598;2023-06-10T01:16:45;24.30;41.80
32147;DHT22;32190;49.112;8.598;2023-06-10T01:22:36;24.00;41.90
32147;DHT22;32190;49.112;8.598;2023-06-10T01:28:29;23.80;42.20
32147;DHT22;32190;49.112;8.598;2023-06-10T01:34:23;23.60;42.30
32147;DHT22;32190;49.112;8.598;2023-06-10T01:40:15;23.40;42.70
32147;DHT22;32190;49.112;8.598;2023-06-10T01:46:06;23.20;42.90
32147;DHT22;32190;49.112;8.598;2023-06-10T01:51:57;23.10;43.20
32147;DHT22;32190;49.112;8.598;2023-06-10T01:57:47;22.90;43.30
32147;DHT22;32190;49.112;8.598;2023-06-10T02:03:38;22.90;43.40
32147;DHT22;32190;49.112;8.598;2023-06-10T02:09:30;22.80;43.60
32147;DHT22;32190;49.112;8.598;2023-06-10T02:15:25;22.80;43.60
32147;DHT22;32190;49.112;8.598;2023-06-10T02:21:16;22.70;43.70
32147;DHT22;32190;49.112;8.598;2023-06-10T02:27:07;22.70;43.80
32147;DHT22;32190;49.112;8.598;2023-06-10T02:33:00;22.70;43.80
32147;DHT22;32190;49.112;8.598;2023-06-10T02:38:51;22.70;44.00
32147;DHT22;32190;49.112;8.598;2023-06-10T02:44:42;22.80;44.00
32147;DHT22;32190;49.112;8.598;2023-06-10T02:50:33;22.80;43.80
32147;DHT22;32190;49.112;8.598;2023-06-10T02:56:23;22.80;43.70
32147;DHT22;32190;49.112;8.598;2023-06-10T03:02:14;22.80;43.70
32147;DHT22;32190;49.112;8.598;2023-06-10T03:08:08;22.70;43.70
32147;DHT22;32190;49.112;8.598;2023-06-10T03:13:59;22.60;43.80
32147;DHT22;32190;49.112;8.598;2023-06-10T03:19:50;22.50;43.90
32147;DHT22;32190;49.112;8.598;2023-06-10T03:25:43;22.30;44.00
32147;DHT22;32190;49.112;8.598;2023-06-10T03:31:34;22.20;44.30
32147;DHT22;32190;49.112;8.598;2023-06-10T03:37:30;22.00;44.50
32147;DHT22;32190;49.112;8.598;2023-06-10T03:43:23;22.00;44.70
32147;DHT22;32190;49.112;8.598;2023-06-10T03:49:14;21.90;45.10
32147;DHT22;32190;49.112;8.598;2023-06-10T03:55:06;21.90;44.80
32147;DHT22;32190;49.112;8.598;2023-06-10T04:00:56;22.00;45.00
32147;DHT22;32190;49.112;8.598;2023-06-10T04:06:47;22.00;45.00
32147;DHT22;32190;49.112;8.598;2023-06-10T04:12:39;22.00;45.00
32147;DHT22;32190;49.112;8.598;2023-06-10T04:18:30;22.00;45.00
32147;DHT22;32190;49.112;8.598;2023-06-10T04:24:21;22.00;45.20
32147;DHT22;32190;49.112;8.598;2023-06-10T04:30:12;22.00;45.30
32147;DHT22;32190;49.112;8.598;2023-06-10T04:36:03;22.10;45.40
32147;DHT22;32190;49.112;8.598;2023-06-10T04:41:54;22.10;45.50
32147;DHT22;32190;49.112;8.598;2023-06-10T04:47:45;22.20;45.50
32147;DHT22;32190;49.112;8.598;2023-06-10T04:53:36;22.40;45.60
32147;DHT22;32190;49.112;8.598;2023-06-10T04:59:26;22.50;45.60
32147;DHT22;32190;49.112;8.598;2023-06-10T05:05:18;22.70;45.70
32147;DHT22;32190;49.112;8.598;2023-06-10T05:11:08;23.00;45.70
32147;DHT22;32190;49.112;8.598;2023-06-10T05:16:59;23.30;45.70
32147;DHT22;32190;49.112;8.598;2023-06-10T05:22:50;24.30;46.70
32147;DHT22;32190;49.112;8.598;2023-06-10T05:28:41;25.80;45.40
32147;DHT22;32190;49.112;8.598;2023-06-10T05:34:32;27.30;44.60
32147;DHT22;32190;49.112;8.598;2023-06-10T05:40:23;28.60;43.60
32147;DHT22;32190;49.112;8.598;2023-06-10T05:46:14;30.00;42.30
32147;DHT22;32190;49.112;8.598;2023-06-10T05:52:05;31.00;41.10
32147;DHT22;32190;49.112;8.598;2023-06-10T05:57:59;31.90;40.10
32147;DHT22;32190;49.112;8.598;2023-06-10T06:03:51;32.60;39.10
32147;DHT22;32190;49.112;8.598;2023-06-10T06:09:41;33.20;38.60
32147;DHT22;32190;49.112;8.598;2023-06-10T06:15:32;33.70;38.20
32147;DHT22;32190;49.112;8.598;2023-06-10T06:21:23;34.10;37.30
32147;DHT22;32190;49.112;8.598;2023-06-10T06:27:13;34.30;36.90
32147;DHT22;32190;49.112;8.598;2023-06-10T06:33:04;34.50;36.40
32147;DHT22;32190;49.112;8.598;2023-06-10T06:38:55;34.60;35.70
32147;DHT22;32190;49.112;8.598;2023-06-10T06:44:46;34.60;35.60
32147;DHT22;32190;49.112;8.598;2023-06-10T06:50:37;34.60;35.50
32147;DHT22;32190;49.112;8.598;2023-06-10T06:56:28;34.50;35.60
32147;DHT22;32190;49.112;8.598;2023-06-10T07:02:18;34.20;35.30
32147;DHT22;32190;49.112;8.598;2023-06-10T07:08:09;33.70;35.30
32147;DHT22;32190;49.112;8.598;2023-06-10T07:14:00;33.20;35.60
32147;DHT22;32190;49.112;8.598;2023-06-10T07:19:50;32.60;35.70
32147;DHT22;32190;49.112;8.598;2023-06-10T07:25:42;32.10;36.20
32147;DHT22;32190;49.112;8.598;2023-06-10T07:31:32;31.70;36.90
32147;DHT22;32190;49.112;8.598;2023-06-10T07:37:23;31.40;37.00
32147;DHT22;32190;49.112;8.598;2023-06-10T07:43:14;31.20;37.90
32147;DHT22;32190;49.112;8.598;2023-06-10T07:49:04;31.00;37.20
32147;DHT22;32190;49.112;8.598;2023-06-10T07:54:55;30.70;37.30
32147;DHT22;32190;49.112;8.598;2023-06-10T08:00:46;30.50;37.80
32147;DHT22;32190;49.112;8.598;2023-06-10T08:06:37;30.30;38.00
32147;DHT22;32190;49.112;8.598;2023-06-10T08:12:27;30.20;38.40
32147;DHT22;32190;49.112;8.598;2023-06-10T08:18:18;30.10;38.40
32147;DHT22;32190;49.112;8.598;2023-06-10T08:24:10;30.00;38.30
32147;DHT22;32190;49.112;8.598;2023-06-10T08:30:04;29.90;38.40
32147;DHT22;32190;49.112;8.598;2023-06-10T08:35:55;29.80;38.50
32147;DHT22;32190;49.112;8.598;2023-06-10T08:48:05;29.70;38.80
32147;DHT22;32190;49.112;8.598;2023-06-10T08:54:09;29.70;39.20
32147;DHT22;32190;49.112;8.598;2023-06-10T09:00:02;29.60;39.00
32147;DHT22;32190;49.112;8.598;2023-06-10T09:11:51;29.50;39.40
32147;DHT22;32190;49.112;8.598;2023-06-10T09:17:42;29.50;39.40
32147;DHT22;32190;49.112;8.598;2023-06-10T09:23:33;29.40;39.60
32147;DHT22;32190;49.112;8.598;2023-06-10T09:29:24;29.50;39.50
32147;DHT22;32190;49.112;8.598;2023-06-10T09:35:15;29.50;39.40
32147;DHT22;32190;49.112;8.598;2023-06-10T09:41:06;29.50;39.40
32147;DHT22;32190;49.112;8.598;2023-06-10T09:46:56;29.50;39.40
32147;DHT22;32190;49.112;8.598;2023-06-10T09:52:50;29.60;39.40
32147;DHT22;32190;49.112;8.598;2023-06-10T09:58:41;29.60;39.60
32147;DHT22;32190;49.112;8.598;2023-06-10T10:04:35;29.60;39.30
32147;DHT22;32190;49.112;8.598;2023-06-10T10:10:28;29.70;39.20
32147;DHT22;32190;49.112;8.598;2023-06-10T10:16:45;29.70;39.20
32147;DHT22;32190;49.112;8.598;2023-06-10T10:22:41;29.90;39.60
32147;DHT22;32190;49.112;8.598;2023-06-10T10:35:16;30.00;38.70
32147;DHT22;32190;49.112;8.598;2023-06-10T10:41:08;30.10;38.40
32147;DHT22;32190;49.112;8.598;2023-06-10T10:47:03;30.20;38.40
32147;DHT22;32190;49.112;8.598;2023-06-10T10:53:02;30.30;38.70
32147;DHT22;32190;49.112;8.598;2023-06-10T10:59:06;30.40;38.50
32147;DHT22;32190;49.112;8.598;2023-06-10T11:04:57;30.50;37.80
32147;DHT22;32190;49.112;8.598;2023-06-10T11:10:51;30.60;38.30
32147;DHT22;32190;49.112;8.598;2023-06-10T11:16:47;30.70;38.80
32147;DHT22;32190;49.112;8.598;2023-06-10T11:22:58;30.80;38.00
32147;DHT22;32190;49.112;8.598;2023-06-10T11:34:52;31.00;38.00
32147;DHT22;32190;49.112;8.598;2023-06-10T11:40:48;31.10;37.40
32147;DHT22;32190;49.112;8.598;2023-06-10T11:46:40;31.30;37.30
32147;DHT22;32190;49.112;8.598;2023-06-10T12:05:24;31.50;36.10
32147;DHT22;32190;49.112;8.598;2023-06-10T12:11:15;31.60;36.30
32147;DHT22;32190;49.112;8.598;2023-06-10T12:17:06;31.70;35.80
32147;DHT22;32190;49.112;8.598;2023-06-10T12:23:08;31.80;35.80
32147;DHT22;32190;49.112;8.598;2023-06-10T12:28:59;31.90;35.50
32147;DHT22;32190;49.112;8.598;2023-06-10T12:34:50;32.00;35.60
32147;DHT22;32190;49.112;8.598;2023-06-10T12:40:41;32.10;35.70
32147;DHT22;32190;49.112;8.598;2023-06-10T12:46:37;32.20;35.60
32147;DHT22;32190;49.112;8.598;2023-06-10T12:52:29;32.30;34.90
32147;DHT22;32190;49.112;8.598;2023-06-10T12:58:20;32.40;34.80
32147;DHT22;32190;49.112;8.598;2023-06-10T13:04:12;32.50;34.40
32147;DHT22;32190;49.112;8.598;2023-06-10T13:10:03;32.60;34.60
32147;DHT22;32190;49.112;8.598;2023-06-10T13:15:53;32.70;34.60
32147;DHT22;32190;49.112;8.598;2023-06-10T13:21:44;32.90;34.50
32147;DHT22;32190;49.112;8.598;2023-06-10T13:27:35;33.00;34.50
32147;DHT22;32190;49.112;8.598;2023-06-10T13:33:29;33.00;34.40
32147;DHT22;32190;49.112;8.598;2023-06-10T13:39:19;33.20;34.20
32147;DHT22;32190;49.112;8.598;2023-06-10T13:45:10;33.10;34.20
32147;DHT22;32190;49.112;8.598;2023-06-10T13:51:00;33.20;34.40
32147;DHT22;32190;49.112;8.598;2023-06-10T13:56:51;33.30;34.00
32147;DHT22;32190;49.112;8.598;2023-06-10T14:02:42;33.40;34.50
32147;DHT22;32190;49.112;8.598;2023-06-10T14:08:32;33.50;34.30
32147;DHT22;32190;49.112;8.598;2023-06-10T14:14:23;33.60;33.90
32147;DHT22;32190;49.112;8.598;2023-06-10T14:20:13;33.70;33.60
32147;DHT22;32190;49.112;8.598;2023-06-10T14:26:04;33.80;33.60
32147;DHT22;32190;49.112;8.598;2023-06-10T14:31:57;33.80;33.10
32147;DHT22;32190;49.112;8.598;2023-06-10T14:37:48;33.90;33.20
32147;DHT22;32190;49.112;8.598;2023-06-10T14:43:38;33.90;33.30
32147;DHT22;32190;49.112;8.598;2023-06-10T14:49:29;34.00;33.40
32147;DHT22;32190;49.112;8.598;2023-06-10T14:55:19;34.10;33.60
32147;DHT22;32190;49.112;8.598;2023-06-10T15:01:10;34.20;33.30
32147;DHT22;32190;49.112;8.598;2023-06-10T15:07:01;34.30;33.40
32147;DHT22;32190;49.112;8.598;2023-06-10T15:12:51;34.40;32.70
32147;DHT22;32190;49.112;8.598;2023-06-10T15:18:45;34.50;32.60
32147;DHT22;32190;49.112;8.598;2023-06-10T15:24:36;34.50;32.40
32147;DHT22;32190;49.112;8.598;2023-06-10T15:30:26;34.50;32.10
32147;DHT22;32190;49.112;8.598;2023-06-10T15:36:17;34.50;32.20
32147;DHT22;32190;49.112;8.598;2023-06-10T15:42:08;34.60;32.30
32147;DHT22;32190;49.112;8.598;2023-06-10T15:47:58;34.60;32.30
32147;DHT22;32190;49.112;8.598;2023-06-10T15:53:49;34.70;32.00
32147;DHT22;32190;49.112;8.598;2023-06-10T15:59:40;34.60;32.10
32147;DHT22;32190;49.112;8.598;2023-06-10T16:05:31;34.70;31.50
32147;DHT22;32190;49.112;8.598;2023-06-10T16:11:21;34.60;31.80
32147;DHT22;32190;49.112;8.598;2023-06-10T16:17:12;34.70;31.60
32147;DHT22;32190;49.112;8.598;2023-06-10T16:23:04;34.70;31.50
32147;DHT22;32190;49.112;8.598;2023-06-10T16:28:54;34.70;32.00
32147;DHT22;32190;49.112;8.598;2023-06-10T16:34:45;34.80;32.10
32147;DHT22;32190;49.112;8.598;2023-06-10T16:40:35;35.00;32.00
32147;DHT22;32190;49.112;8.598;2023-06-10T16:46:26;35.10;32.30
32147;DHT22;32190;49.112;8.598;2023-06-10T16:52:18;35.20;31.90
32147;DHT22;32190;49.112;8.598;2023-06-10T16:58:09;35.30;31.70
32147;DHT22;32190;49.112;8.598;2023-06-10T17:04:00;35.30;31.90
32147;DHT22;32190;49.112;8.598;2023-06-10T17:09:50;35.20;31.90
32147;DHT22;32190;49.112;8.598;2023-06-10T17:15:41;35.20;32.30
32147;DHT22;32190;49.112;8.598;2023-06-10T17:21:31;35.20;31.80
32147;DHT22;32190;49.112;8.598;2023-06-10T17:27:22;35.20;31.50
32147;DHT22;32190;49.112;8.598;2023-06-10T17:33:13;35.10;31.60
32147;DHT22;32190;49.112;8.598;2023-06-10T17:39:04;35.00;32.00
32147;DHT22;32190;49.112;8.598;2023-06-10T17:44:55;35.00;32.20
32147;DHT22;32190;49.112;8.598;2023-06-10T17:50:46;34.90;32.50
32147;DHT22;32190;49.112;8.598;2023-06-10T17:56:36;34.80;32.00
32147;DHT22;32190;49.112;8.598;2023-06-10T18:02:27;34.80;32.00
32147;DHT22;32190;49.112;8.598;2023-06-10T18:08:17;34.70;32.60
32147;DHT22;32190;49.112;8.598;2023-06-10T18:14:08;34.60;32.70
32147;DHT22;32190;49.112;8.598;2023-06-10T18:19:59;34.50;32.40
32147;DHT22;32190;49.112;8.598;2023-06-10T18:25:50;34.40;32.60
32147;DHT22;32190;49.112;8.598;2023-06-10T18:31:40;34.40;33.10
32147;DHT22;32190;49.112;8.598;2023-06-10T18:37:31;34.40;33.40
32147;DHT22;32190;49.112;8.598;2023-06-10T18:43:21;34.40;33.60
32147;DHT22;32190;49.112;8.598;2023-06-10T18:49:12;34.40;33.60
32147;DHT22;32190;49.112;8.598;2023-06-10T18:55:03;34.40;33.70
32147;DHT22;32190;49.112;8.598;2023-06-10T19:00:53;34.30;33.60
32147;DHT22;32190;49.112;8.598;2023-06-10T19:06:44;34.30;33.70
32147;DHT22;32190;49.112;8.598;2023-06-10T19:12:35;34.20;33.10
32147;DHT22;32190;49.112;8.598;2023-06-10T19:18:25;34.00;33.30
32147;DHT22;32190;49.112;8.598;2023-06-10T19:24:16;33.70;33.40
32147;DHT22;32190;49.112;8.598;2023-06-10T19:30:07;33.40;33.70
32147;DHT22;32190;49.112;8.598;2023-06-10T19:35:58;33.30;34.00
32147;DHT22;32190;49.112;8.598;2023-06-10T19:41:48;33.20;34.20
32147;DHT22;32190;49.112;8.598;2023-06-10T19:47:39;33.20;34.40
32147;DHT22;32190;49.112;8.598;2023-06-10T19:53:29;33.10;34.40
32147;DHT22;32190;49.112;8.598;2023-06-10T19:59:20;33.10;34.50
32147;DHT22;32190;49.112;8.598;2023-06-10T20:05:10;33.00;34.60
32147;DHT22;32190;49.112;8.598;2023-06-10T20:11:01;33.00;34.60
32147;DHT22;32190;49.112;8.598;2023-06-10T20:16:51;32.90;34.90
32147;DHT22;32190;49.112;8.598;2023-06-10T20:22:42;32.90;35.00
32147;DHT22;32190;49.112;8.598;2023-06-10T20:28:53;32.80;35.00
32147;DHT22;32190;49.112;8.598;2023-06-10T20:34:43;32.70;35.20
32147;DHT22;32190;49.112;8.598;2023-06-10T20:40:35;32.60;35.20
32147;DHT22;32190;49.112;8.598;2023-06-10T20:46:26;32.50;35.40
32147;DHT22;32190;49.112;8.598;2023-06-10T20:52:16;32.40;35.40
32147;DHT22;32190;49.112;8.598;2023-06-10T20:58:07;32.20;35.60
32147;DHT22;32190;49.112;8.598;2023-06-10T21:03:57;32.10;35.80
32147;DHT22;32190;49.112;8.598;2023-06-10T21:09:48;31.90;35.80
32147;DHT22;32190;49.112;8.598;2023-06-10T21:15:38;31.70;36.00
32147;DHT22;32190;49.112;8.598;2023-06-10T21:21:29;31.50;36.20
32147;DHT22;32190;49.112;8.598;2023-06-10T21:27:20;31.30;36.30
32147;DHT22;32190;49.112;8.598;2023-06-10T21:33:12;31.10;36.50
32147;DHT22;32190;49.112;8.598;2023-06-10T21:39:02;31.00;36.70
32147;DHT22;32190;49.112;8.598;2023-06-10T21:44:53;30.90;37.00
32147;DHT22;32190;49.112;8.598;2023-06-10T21:50:44;30.80;37.10
32147;DHT22;32190;49.112;8.598;2023-06-10T21:56:35;30.70;37.30
32147;DHT22;32190;49.112;8.598;2023-06-10T22:02:26;30.60;37.30
32147;DHT22;32190;49.112;8.598;2023-06-10T22:08:17;30.50;37.40
32147;DHT22;32190;49.112;8.598;2023-06-10T22:14:07;30.40;37.50
32147;DHT22;32190;49.112;8.598;2023-06-10T22:19:58;30.30;37.60
32147;DHT22;32190;49.112;8.598;2023-06-10T22:25:48;30.10;37.70
32147;DHT22;32190;49.112;8.598;2023-06-10T22:31:39;30.00;37.70
32147;DHT22;32190;49.112;8.598;2023-06-10T22:37:29;29.80;37.90
32147;DHT22;32190;49.112;8.598;2023-06-10T22:43:20;29.70;38.10
32147;DHT22;32190;49.112;8.598;2023-06-10T22:49:11;29.60;38.20
32147;DHT22;32190;49.112;8.598;2023-06-10T22:55:02;29.60;38.40
32147;DHT22;32190;49.112;8.598;2023-06-10T23:00:54;29.40;38.40
32147;DHT22;32190;49.112;8.598;2023-06-10T23:06:45;29.20;38.50
32147;DHT22;32190;49.112;8.598;2023-06-10T23:12:36;29.10;38.80
32147;DHT22;32190;49.112;8.598;2023-06-10T23:18:26;29.10;38.90
32147;DHT22;32190;49.112;8.598;2023-06-10T23:24:17;28.90;39.00
32147;DHT22;32190;49.112;8.598;2023-06-10T23:30:08;28.90;39.20
32147;DHT22;32190;49.112;8.598;2023-06-10T23:35:59;28.80;39.20
32147;DHT22;32190;49.112;8.598;2023-06-10T23:41:50;28.80;39.20
32147;DHT22;32190;49.112;8.598;2023-06-10T23:47:40;28.60;39.30
32147;DHT22;32190;49.112;8.598;2023-06-10T23:53:31;28.50;39.40
32147;DHT22;32190;49.112;8.598;2023-06-10T23:59:22;28.30;39.40
